Time,TemperatureF,DewpointF,PressureIn,WindDirection,WindDirectionDegrees,WindSpeedMPH,WindSpeedGustMPH,Humidity,HourlyPrecipIn,Conditions,Clouds,dailyrainin,SoftwareType,DateUTC
2013-06-04 00:02:00,51.0,41.0,-100.00,WSW,256,1.0,2.0,68,0.00,,,-99.99,,2013-06-04 06:02:00,
2013-06-04 00:12:00,51.0,41.0,-100.00,WSW,256,1.0,2.0,68,0.00,,,-99.99,,2013-06-04 06:12:00,
2013-06-04 00:22:00,49.0,41.0,-100.00,WSW,243,2.0,4.0,72,0.00,,,-99.99,,2013-06-04 06:22:00,
2013-06-04 00:32:00,49.0,41.0,-100.00,WSW,243,2.0,4.0,72,0.00,,,-99.99,,2013-06-04 06:32:00,
2013-06-04 00:42:00,49.0,41.0,-100.00,WSW,237,2.0,4.0,74,0.00,,,-99.99,,2013-06-04 06:42:00,
2013-06-04 00:52:00,48.0,40.0,-100.00,SW,230,2.0,3.0,75,0.00,,,-99.99,,2013-06-04 06:52:00,
2013-06-04 01:02:00,48.0,40.0,-100.00,SW,230,2.0,3.0,75,0.00,,,-99.99,,2013-06-04 07:02:00,
2013-06-04 01:12:00,47.0,40.0,-100.00,West,268,2.0,4.0,77,0.00,,,-99.99,,2013-06-04 07:12:00,
2013-06-04 01:22:00,47.0,40.0,-100.00,West,268,2.0,4.0,77,0.00,,,-99.99,,2013-06-04 07:22:00,
2013-06-04 01:32:00,47.0,40.0,-100.00,West,268,2.0,4.0,77,0.00,,,-99.99,,2013-06-04 07:32:00,
2013-06-04 01:42:00,46.0,40.0,-100.00,West,275,3.0,4.0,80,0.00,,,-99.99,,2013-06-04 07:42:00,
2013-06-04 01:52:00,46.0,40.0,-100.00,West,270,2.0,4.0,80,0.00,,,-99.99,,2013-06-04 07:52:00,
2013-06-04 02:02:00,46.0,40.0,-100.00,West,270,2.0,4.0,80,0.00,,,-99.99,,2013-06-04 08:02:00,
2013-06-04 02:12:00,46.0,40.0,-100.00,West,270,2.0,4.0,80,0.00,,,-99.99,,2013-06-04 08:12:00,
2013-06-04 02:22:00,44.0,40.0,-100.00,NE,49,0.0,0.0,85,0.00,,,-99.99,,2013-06-04 08:22:00,
2013-06-04 02:32:00,44.0,40.0,-100.00,NE,49,0.0,0.0,85,0.00,,,-99.99,,2013-06-04 08:32:00,
2013-06-04 02:42:00,44.0,40.0,-100.00,West,268,1.0,2.0,84,0.00,,,-99.99,,2013-06-04 08:42:00,
2013-06-04 02:52:00,44.0,40.0,-100.00,West,275,1.0,2.0,86,0.00,,,-99.99,,2013-06-04 08:52:00,
2013-06-04 03:02:00,44.0,40.0,-100.00,West,275,1.0,2.0,86,0.00,,,-99.99,,2013-06-04 09:02:00,
2013-06-04 03:12:00,44.0,40.0,-100.00,WSW,258,2.0,2.0,85,0.00,,,-99.99,,2013-06-04 09:12:00,
2013-06-04 03:22:00,44.0,40.0,-100.00,WSW,258,2.0,2.0,85,0.00,,,-99.99,,2013-06-04 09:22:00,
2013-06-04 03:32:00,44.0,40.0,-100.00,WSW,258,2.0,2.0,85,0.00,,,-99.99,,2013-06-04 09:32:00,
2013-06-04 03:42:00,44.0,40.0,-100.00,West,271,2.0,3.0,85,0.00,,,-99.99,,2013-06-04 09:42:00,
2013-06-04 03:53:00,44.0,40.0,-100.00,West,274,2.0,4.0,86,0.00,,,-99.99,,2013-06-04 09:53:00,
2013-06-04 04:02:00,44.0,40.0,-100.00,West,274,2.0,4.0,86,0.00,,,-99.99,,2013-06-04 10:02:00,
2013-06-04 04:12:00,44.0,40.0,-100.00,West,268,2.0,3.0,86,0.00,,,-99.99,,2013-06-04 10:12:00,
2013-06-04 04:22:00,43.0,40.0,-100.00,WSW,237,2.0,3.0,88,0.00,,,-99.99,,2013-06-04 10:22:00,
2013-06-04 04:32:00,43.0,40.0,-100.00,WSW,237,2.0,3.0,88,0.00,,,-99.99,,2013-06-04 10:32:00,
2013-06-04 04:42:00,43.0,40.0,-100.00,WSW,244,2.0,3.0,87,0.00,,,-99.99,,2013-06-04 10:42:00,
2013-06-04 04:53:00,44.0,40.0,-100.00,SW,232,3.0,5.0,87,0.00,,,-99.99,,2013-06-04 10:53:00,
2013-06-04 05:02:00,44.0,40.0,-100.00,SW,232,3.0,5.0,87,0.00,,,-99.99,,2013-06-04 11:02:00,
2013-06-04 05:12:00,44.0,40.0,-100.00,WSW,240,3.0,5.0,85,0.00,,,-99.99,,2013-06-04 11:12:00,
2013-06-04 05:22:00,44.0,40.0,-100.00,SW,223,2.0,4.0,83,0.00,,,-99.99,,2013-06-04 11:22:00,
2013-06-04 05:32:00,44.0,40.0,-100.00,SW,223,2.0,4.0,83,0.00,,,-99.99,,2013-06-04 11:32:00,
2013-06-04 05:42:00,44.0,39.0,-100.00,SW,233,4.0,5.0,82,0.00,,,-99.99,,2013-06-04 11:42:00,
2013-06-04 05:52:00,44.0,39.0,-100.00,WSW,258,2.0,3.0,82,0.00,,,-99.99,,2013-06-04 11:52:00,
2013-06-04 06:02:00,44.0,39.0,-100.00,WSW,258,2.0,3.0,82,0.00,,,-99.99,,2013-06-04 12:02:00,
2013-06-04 06:12:00,46.0,39.0,-100.00,SW,223,2.0,4.0,76,0.00,,,-99.99,,2013-06-04 12:12:00,
2013-06-04 06:22:00,44.0,39.0,-100.00,West,264,1.0,2.0,81,0.00,,,-99.99,,2013-06-04 12:22:00,
2013-06-04 06:32:00,44.0,39.0,-100.00,West,264,1.0,2.0,81,0.00,,,-99.99,,2013-06-04 12:32:00,
2013-06-04 06:42:00,45.0,39.0,-100.00,SW,236,1.0,2.0,79,0.00,,,-99.99,,2013-06-04 12:42:00,
2013-06-04 06:52:00,45.0,39.0,-100.00,SW,215,2.0,3.0,77,0.00,,,-99.99,,2013-06-04 12:52:00,
2013-06-04 07:02:00,45.0,39.0,-100.00,SW,215,2.0,3.0,77,0.00,,,-99.99,,2013-06-04 13:02:00,
2013-06-04 07:12:00,47.0,38.0,-100.00,WSW,239,1.0,3.0,71,0.00,,,-99.99,,2013-06-04 13:12:00,
2013-06-04 07:22:00,47.0,39.0,-100.00,WSW,251,2.0,3.0,74,0.00,,,-99.99,,2013-06-04 13:22:00,
2013-06-04 07:32:00,47.0,39.0,-100.00,WSW,251,2.0,3.0,74,0.00,,,-99.99,,2013-06-04 13:32:00,
2013-06-04 07:42:00,48.0,39.0,-100.00,WSW,257,2.0,3.0,71,0.00,,,-99.99,,2013-06-04 13:42:00,
2013-06-04 07:52:00,49.0,39.0,-100.00,West,263,2.0,3.0,69,0.00,,,-99.99,,2013-06-04 13:52:00,
2013-06-04 08:02:00,49.0,39.0,-100.00,West,263,2.0,3.0,69,0.00,,,-99.99,,2013-06-04 14:02:00,
2013-06-04 08:12:00,49.0,39.0,-100.00,WSW,258,2.0,3.0,69,0.00,,,-99.99,,2013-06-04 14:12:00,
2013-06-04 08:22:00,50.0,40.0,-100.00,West,261,2.0,3.0,69,0.00,,,-99.99,,2013-06-04 14:22:00,
2013-06-04 08:32:00,50.0,40.0,-100.00,West,261,2.0,3.0,69,0.00,,,-99.99,,2013-06-04 14:32:00,
2013-06-04 08:42:00,51.0,40.0,-100.00,West,260,1.0,2.0,65,0.00,,,-99.99,,2013-06-04 14:42:00,
2013-06-04 08:52:00,53.0,40.0,-100.00,WSW,251,4.0,5.0,60,0.00,,,-99.99,,2013-06-04 14:52:00,
2013-06-04 09:02:00,53.0,40.0,-100.00,WSW,251,4.0,5.0,60,0.00,,,-99.99,,2013-06-04 15:02:00,
2013-06-04 09:12:00,54.0,39.0,-100.00,WSW,247,3.0,5.0,57,0.00,,,-99.99,,2013-06-04 15:12:00,
2013-06-04 09:22:00,54.0,39.0,-100.00,WSW,247,3.0,5.0,57,0.00,,,-99.99,,2013-06-04 15:22:00,
2013-06-04 09:33:00,54.0,39.0,-100.00,WSW,247,3.0,5.0,57,0.00,,,-99.99,,2013-06-04 15:33:00,
2013-06-04 09:42:00,56.0,35.0,-100.00,North,0,2.0,4.0,44,0.00,,,-99.99,,2013-06-04 15:42:00,
2013-06-04 09:53:00,56.0,35.0,-100.00,North,0,2.0,4.0,44,0.00,,,-99.99,,2013-06-04 15:53:00,
2013-06-04 10:03:00,56.0,35.0,-100.00,North,0,2.0,4.0,44,0.00,,,-99.99,,2013-06-04 16:03:00,
2013-06-04 10:12:00,57.0,34.0,-100.00,North,1,4.0,6.0,41,0.00,,,-99.99,,2013-06-04 16:12:00,
2013-06-04 10:22:00,58.0,34.0,-100.00,ENE,68,3.0,6.0,40,0.00,,,-99.99,,2013-06-04 16:22:00,
2013-06-04 10:33:00,58.0,34.0,-100.00,ENE,68,3.0,6.0,40,0.00,,,-99.99,,2013-06-04 16:33:00,
2013-06-04 10:42:00,58.0,34.0,-100.00,ESE,116,6.0,9.0,40,0.00,,,-99.99,,2013-06-04 16:42:00,
2013-06-04 10:53:00,59.0,32.0,-100.00,East,99,4.0,8.0,36,0.00,,,-99.99,,2013-06-04 16:53:00,
2013-06-04 11:02:00,59.0,32.0,-100.00,East,99,4.0,8.0,36,0.00,,,-99.99,,2013-06-04 17:02:00,
2013-06-04 11:12:00,61.0,32.0,-100.00,ENE,65,4.0,8.0,34,0.00,,,-99.99,,2013-06-04 17:12:00,
2013-06-04 11:22:00,61.0,32.0,-100.00,ENE,65,4.0,8.0,34,0.00,,,-99.99,,2013-06-04 17:22:00,
2013-06-04 11:32:00,61.0,32.0,-100.00,ENE,65,4.0,8.0,34,0.00,,,-99.99,,2013-06-04 17:32:00,
2013-06-04 11:42:00,61.0,33.0,-100.00,ENE,58,3.0,6.0,35,0.00,,,-99.99,,2013-06-04 17:42:00,
2013-06-04 11:52:00,62.0,29.0,-100.00,ESE,120,4.0,8.0,29,0.00,,,-99.99,,2013-06-04 17:52:00,
2013-06-04 12:02:00,62.0,29.0,-100.00,ESE,120,4.0,8.0,29,0.00,,,-99.99,,2013-06-04 18:02:00,
2013-06-04 12:12:00,62.0,31.0,-100.00,SE,133,5.0,7.0,31,0.00,,,-99.99,,2013-06-04 18:12:00,
2013-06-04 12:22:00,62.0,32.0,-100.00,WNW,289,2.0,4.0,31,0.00,,,-99.99,,2013-06-04 18:22:00,
2013-06-04 12:32:00,62.0,32.0,-100.00,WNW,289,2.0,4.0,31,0.00,,,-99.99,,2013-06-04 18:32:00,
2013-06-04 12:42:00,63.0,37.0,-100.00,WNW,296,3.0,5.0,38,0.00,,,-99.99,,2013-06-04 18:42:00,
2013-06-04 12:52:00,64.0,31.0,-100.00,WSW,251,2.0,4.0,28,0.00,,,-99.99,,2013-06-04 18:52:00,
2013-06-04 13:02:00,64.0,31.0,-100.00,WSW,251,2.0,4.0,28,0.00,,,-99.99,,2013-06-04 19:02:00,
2013-06-04 13:12:00,63.0,35.0,-100.00,ESE,112,3.0,5.0,35,0.00,,,-99.99,,2013-06-04 19:12:00,
2013-06-04 13:22:00,63.0,34.0,-100.00,West,261,6.0,9.0,33,0.00,,,-99.99,,2013-06-04 19:22:00,
2013-06-04 13:32:00,63.0,34.0,-100.00,West,261,6.0,9.0,33,0.00,,,-99.99,,2013-06-04 19:32:00,
2013-06-04 13:42:00,63.0,35.0,-100.00,WSW,257,6.0,11.0,35,0.00,,,-99.99,,2013-06-04 19:42:00,
2013-06-04 13:52:00,65.0,36.0,-100.00,WNW,282,5.0,9.0,34,0.00,,,-99.99,,2013-06-04 19:52:00,
2013-06-04 14:12:00,65.0,36.0,-100.00,West,274,6.0,11.0,34,0.00,,,-99.99,,2013-06-04 20:12:00,
2013-06-04 14:22:00,65.0,36.0,-100.00,West,274,6.0,11.0,34,0.00,,,-99.99,,2013-06-04 20:22:00,
2013-06-04 14:32:00,65.0,36.0,-100.00,West,274,6.0,11.0,34,0.00,,,-99.99,,2013-06-04 20:32:00,
2013-06-04 14:42:00,65.0,35.0,-100.00,West,277,6.0,10.0,33,0.00,,,-99.99,,2013-06-04 20:42:00,
2013-06-04 14:53:00,65.0,35.0,-100.00,West,277,6.0,10.0,33,0.00,,,-99.99,,2013-06-04 20:53:00,
2013-06-04 15:02:00,65.0,35.0,-100.00,West,277,6.0,10.0,33,0.00,,,-99.99,,2013-06-04 21:02:00,
2013-06-04 15:12:00,67.0,37.0,-100.00,WSW,258,5.0,10.0,32,0.00,,,-99.99,,2013-06-04 21:12:00,
2013-06-04 15:22:00,67.0,37.0,-100.00,WSW,258,7.0,11.0,33,0.00,,,-99.99,,2013-06-04 21:22:00,
2013-06-04 15:33:00,67.0,37.0,-100.00,WSW,258,7.0,11.0,33,0.00,,,-99.99,,2013-06-04 21:33:00,
2013-06-04 15:42:00,68.0,36.0,-100.00,WSW,248,4.0,8.0,30,0.00,,,-99.99,,2013-06-04 21:42:00,
2013-06-04 15:53:00,69.0,36.0,-100.00,North,349,3.0,6.0,30,0.00,,,-99.99,,2013-06-04 21:53:00,
2013-06-04 16:02:00,69.0,36.0,-100.00,North,349,3.0,6.0,30,0.00,,,-99.99,,2013-06-04 22:02:00,
2013-06-04 16:12:00,68.0,38.0,-100.00,West,272,6.0,9.0,33,0.00,,,-99.99,,2013-06-04 22:12:00,
2013-06-04 16:22:00,68.0,38.0,-100.00,West,272,6.0,9.0,33,0.00,,,-99.99,,2013-06-04 22:22:00,
2013-06-04 16:32:00,68.0,38.0,-100.00,West,272,6.0,9.0,33,0.00,,,-99.99,,2013-06-04 22:32:00,
2013-06-04 16:42:00,69.0,37.0,-100.00,WNW,285,4.0,9.0,31,0.00,,,-99.99,,2013-06-04 22:42:00,
2013-06-04 16:52:00,68.0,37.0,-100.00,West,280,6.0,9.0,32,0.00,,,-99.99,,2013-06-04 22:52:00,
2013-06-04 17:02:00,68.0,37.0,-100.00,West,280,6.0,9.0,32,0.00,,,-99.99,,2013-06-04 23:02:00,
2013-06-04 17:12:00,70.0,37.0,-100.00,West,278,3.0,6.0,30,0.00,,,-99.99,,2013-06-04 23:12:00,
2013-06-04 17:22:00,69.0,37.0,-100.00,West,274,7.0,10.0,31,0.00,,,-99.99,,2013-06-04 23:22:00,
2013-06-04 17:32:00,69.0,37.0,-100.00,West,274,7.0,10.0,31,0.00,,,-99.99,,2013-06-04 23:32:00,
2013-06-04 17:42:00,70.0,40.0,-100.00,NNW,342,2.0,7.0,33,0.00,,,-99.99,,2013-06-04 23:42:00,
2013-06-04 17:52:00,69.0,39.0,-100.00,West,277,5.0,10.0,33,0.00,,,-99.99,,2013-06-04 23:52:00,
2013-06-04 18:02:00,69.0,39.0,-100.00,West,277,5.0,10.0,33,0.00,,,-99.99,,2013-06-05 00:02:00,
2013-06-04 18:12:00,69.0,40.0,-100.00,NW,318,4.0,8.0,34,0.00,,,-99.99,,2013-06-05 00:12:00,
2013-06-04 18:22:00,69.0,40.0,-100.00,NW,318,4.0,8.0,34,0.00,,,-99.99,,2013-06-05 00:22:00,
2013-06-04 18:32:00,69.0,40.0,-100.00,NW,318,4.0,8.0,34,0.00,,,-99.99,,2013-06-05 00:32:00,
2013-06-04 18:42:00,69.0,40.0,-100.00,NW,318,4.0,8.0,34,0.00,,,-99.99,,2013-06-05 00:42:00,
2013-06-04 18:52:00,70.0,40.0,-100.00,North,4,3.0,8.0,34,0.00,,,-99.99,,2013-06-05 00:52:00,
2013-06-04 19:02:00,70.0,40.0,-100.00,North,4,3.0,8.0,34,0.00,,,-99.99,,2013-06-05 01:02:00,
2013-06-04 19:12:00,69.0,38.0,-100.00,West,280,7.0,9.0,32,0.00,,,-99.99,,2013-06-05 01:12:00,
2013-06-04 19:22:00,68.0,40.0,-100.00,NW,311,6.0,9.0,35,0.00,,,-99.99,,2013-06-05 01:22:00,
2013-06-04 19:32:00,69.0,40.0,-100.00,NNW,336,1.0,3.0,34,0.00,,,-99.99,,2013-06-05 01:32:00,
2013-06-04 19:42:00,69.0,40.0,-100.00,NNW,336,1.0,3.0,34,0.00,,,-99.99,,2013-06-05 01:42:00,
2013-06-04 19:52:00,68.0,40.0,-100.00,ESE,102,4.0,7.0,36,0.00,,,-99.99,,2013-06-05 01:52:00,
2013-06-04 20:02:00,68.0,40.0,-100.00,ESE,102,4.0,7.0,36,0.00,,,-99.99,,2013-06-05 02:02:00,
2013-06-04 20:12:00,67.0,40.0,-100.00,North,359,3.0,4.0,37,0.00,,,-99.99,,2013-06-05 02:12:00,
2013-06-04 20:22:00,67.0,40.0,-100.00,North,4,1.0,7.0,37,0.00,,,-99.99,,2013-06-05 02:22:00,
2013-06-04 20:32:00,67.0,40.0,-100.00,North,4,1.0,7.0,37,0.00,,,-99.99,,2013-06-05 02:32:00,
2013-06-04 20:42:00,65.0,40.0,-100.00,NW,308,2.0,4.0,39,0.00,,,-99.99,,2013-06-05 02:42:00,
2013-06-04 20:52:00,64.0,39.0,-100.00,NNE,13,3.0,5.0,39,0.00,,,-99.99,,2013-06-05 02:52:00,
2013-06-04 21:02:00,64.0,39.0,-100.00,NNE,13,3.0,5.0,39,0.00,,,-99.99,,2013-06-05 03:02:00,
2013-06-04 21:12:00,62.0,41.0,-100.00,WNW,295,1.0,3.0,46,0.00,,,-99.99,,2013-06-05 03:12:00,
2013-06-04 21:22:00,61.0,42.0,-100.00,WNW,292,2.0,6.0,50,0.00,,,-99.99,,2013-06-05 03:22:00,
2013-06-04 21:32:00,61.0,42.0,-100.00,WNW,292,2.0,6.0,50,0.00,,,-99.99,,2013-06-05 03:32:00,
2013-06-04 21:43:00,59.0,42.0,-100.00,WNW,301,1.0,2.0,53,0.00,,,-99.99,,2013-06-05 03:43:00,
2013-06-04 21:53:00,58.0,43.0,-100.00,WNW,298,1.0,2.0,57,0.00,,,-99.99,,2013-06-05 03:53:00,
2013-06-04 22:02:00,58.0,43.0,-100.00,WNW,298,1.0,2.0,57,0.00,,,-99.99,,2013-06-05 04:02:00,
2013-06-04 22:12:00,57.0,40.0,-100.00,West,263,2.0,3.0,53,0.00,,,-99.99,,2013-06-05 04:12:00,
2013-06-04 22:22:00,56.0,43.0,-100.00,West,265,2.0,2.0,59,0.00,,,-99.99,,2013-06-05 04:22:00,
2013-06-04 22:32:00,56.0,43.0,-100.00,West,265,2.0,2.0,59,0.00,,,-99.99,,2013-06-05 04:32:00,
2013-06-04 22:42:00,56.0,43.0,-100.00,West,265,2.0,2.0,59,0.00,,,-99.99,,2013-06-05 04:42:00,
2013-06-04 22:53:00,55.0,42.0,-100.00,West,270,2.0,3.0,61,0.00,,,-99.99,,2013-06-05 04:53:00,
2013-06-04 23:02:00,55.0,42.0,-100.00,West,270,2.0,3.0,61,0.00,,,-99.99,,2013-06-05 05:02:00,
2013-06-04 23:12:00,55.0,41.0,-100.00,WSW,258,2.0,3.0,59,0.00,,,-99.99,,2013-06-05 05:12:00,
2013-06-04 23:22:00,53.0,42.0,-100.00,WSW,246,1.0,2.0,64,0.00,,,-99.99,,2013-06-05 05:22:00,
2013-06-04 23:32:00,53.0,42.0,-100.00,WSW,246,1.0,2.0,64,0.00,,,-99.99,,2013-06-05 05:32:00,
2013-06-04 23:42:00,53.0,42.0,-100.00,WSW,246,1.0,2.0,64,0.00,,,-99.99,,2013-06-05 05:42:00,
2013-06-04 23:52:00,53.0,41.0,-100.00,WSW,254,1.0,2.0,64,0.00,,,-99.99,,2013-06-05 05:52:00,